Pagrindinis puslapis
METAR-TAF:

METAR-TAF

Oro uostai :

Ohio State University Airport

Kolumbas, Ohajas, Jungtinės Amerikos Valstijos

platuma: 40-04-41N, ilguma: 083-04-41W, Aukštis: 275 m

Dabartinis oras

Ataskaita buvo paskelbta 11 minutes, ne 15:53 UTC
Vėjas 6 kt iš Rytų/Pietryčių
Temperatūra 17°C
Drėgmė 42%
Slėgis 1032 hPa
Matomumas: 16.1 km
Giedras dangus

METAR: KOSU 211553Z 12006KT 10SM CLR 17/04 A3048 RMK AO2 SLP322 T01720039

Laikas: 12:04 (16:04 UTC)


TAF: trūkstamas

Orai ataskaitas ir orų prognozės (METAR, TAF).

turimą stotys yra geltonos ir raudonos taškus žemėlapyje.

Perkelti pele per norėdami pamatyti stoties vardą.

Tada spustelėkite, norėdami matyti oro stebėjimo ir prognozės.

Norėdami pakeisti žemėlapį: spustelėkite ant žalios mygtukų su juodo kryžiaus žemyn,; žalią mygtuką su brūkšneliu, jei norite nutolinti; arba žalių rodyklių gretimoms žemėlapius.


METAR-TAF: